Time;durP1;ratioP1;P1;durP2;ratioP2;P2;SDS_P1;SDS_P2;PMS_P1;PMS_P2;Temp;Humidity;BMP_temperature;BMP_pressure;BME280_temperature;BME280_humidity;BME280_pressure;Samples;Min_cycle;Max_cycle;Signal;HPM_P1;HPM_P2
2023/07/15 00:00:53;;;;;;;6.78;3.95;;;28.70;54.70;;;;;;5113545;28;20039;-69
2023/07/15 00:03:20;;;;;;;5.43;2.95;;;28.70;54.70;;;;;;5113477;28;20032;-69
2023/07/15 00:05:47;;;;;;;7.35;3.47;;;28.70;54.70;;;;;;5113525;28;20100;-68
2023/07/15 00:08:14;;;;;;;5.75;3.05;;;28.60;54.70;;;;;;5112100;28;20399;-68
2023/07/15 00:10:44;;;;;;;3.15;2.85;;;28.70;54.70;;;;;;5112231;28;20508;-69
2023/07/15 00:13:16;;;;;;;3.95;3.35;;;28.70;54.80;;;;;;5113494;28;20444;-69
2023/07/15 00:15:47;;;;;;;5.35;3.63;;;28.70;54.80;;;;;;5112175;28;20038;-69
2023/07/15 00:18:14;;;;;;;6.03;3.58;;;28.70;54.80;;;;;;5113329;28;20457;-68
2023/07/15 00:20:41;;;;;;;4.93;4.25;;;28.70;54.80;;;;;;5113370;28;20027;-69
2023/07/15 00:23:23;;;;;;;4.03;3.38;;;28.70;54.80;;;;;;5113176;28;20024;-69
2023/07/15 00:25:51;;;;;;;4.18;3.55;;;28.60;54.90;;;;;;5094948;28;20055;-69
2023/07/15 00:28:24;;;;;;;7.18;3.30;;;28.70;54.90;;;;;;5111731;28;20063;-68
2023/07/15 00:30:53;;;;;;;3.75;2.90;;;28.60;54.90;;;;;;5111864;28;20042;-69
2023/07/15 00:33:20;;;;;;;6.03;4.07;;;28.50;55.00;;;;;;5113421;28;20028;-69
2023/07/15 00:35:47;;;;;;;4.60;3.70;;;28.60;55.10;;;;;;5113243;28;20031;-68
2023/07/15 00:38:13;;;;;;;7.20;3.72;;;28.60;55.10;;;;;;5113000;28;20062;-69
2023/07/15 00:40:45;;;;;;;5.20;3.90;;;28.60;55.20;;;;;;5112919;28;20124;-69
2023/07/15 00:43:49;;;;;;;5.90;3.38;;;28.40;55.20;;;;;;5112785;28;20122;-69
2023/07/15 00:46:18;;;;;;;9.35;3.80;;;28.60;55.30;;;;;;5111299;28;20036;-69
2023/07/15 00:49:21;;;;;;;4.68;4.07;;;28.60;55.30;;;;;;5112660;28;20096;-69
2023/07/15 00:51:50;;;;;;;9.07;3.85;;;28.60;55.30;;;;;;5094449;28;20039;-69
2023/07/15 00:54:17;;;;;;;4.30;3.90;;;28.60;55.30;;;;;;5112761;28;20051;-69
2023/07/15 00:56:45;;;;;;;5.30;4.30;;;28.60;55.40;;;;;;5112538;28;20097;-68
2023/07/15 00:59:14;;;;;;;9.82;3.85;;;28.60;55.40;;;;;;5112636;28;20031;-68
2023/07/15 01:01:40;;;;;;;4.72;4.13;;;28.60;55.40;;;;;;5112701;28;20044;-68
2023/07/15 01:04:06;;;;;;;8.43;4.35;;;28.60;55.40;;;;;;5111212;28;20092;-69
2023/07/15 01:06:33;;;;;;;6.28;3.47;;;28.60;55.40;;;;;;5111065;28;20039;-69
2023/07/15 01:09:00;;;;;;;3.53;3.22;;;28.60;55.40;;;;;;5093036;28;20420;-67
2023/07/15 01:11:29;;;;;;;4.43;4.00;;;28.50;55.40;;;;;;5093035;28;20052;-68
2023/07/15 01:13:56;;;;;;;4.75;3.78;;;28.60;55.40;;;;;;5092928;28;20170;-69
2023/07/15 01:16:23;;;;;;;8.15;3.80;;;28.70;55.40;;;;;;5092868;28;20676;-68
2023/07/15 01:18:50;;;;;;;7.50;3.47;;;28.60;55.40;;;;;;5091882;28;20138;-68
2023/07/15 01:21:19;;;;;;;5.55;4.10;;;28.50;55.40;;;;;;5110069;28;20038;-68
2023/07/15 01:23:46;;;;;;;4.13;3.70;;;28.50;55.40;;;;;;5092745;28;20065;-68
2023/07/15 01:26:11;;;;;;;9.43;4.25;;;28.40;55.40;;;;;;5109801;28;20376;-68
2023/07/15 01:28:38;;;;;;;6.00;3.97;;;28.50;55.50;;;;;;5092292;28;20044;-69
2023/07/15 01:31:04;;;;;;;4.40;4.00;;;28.50;55.50;;;;;;5048827;28;20055;-69
2023/07/15 01:33:31;;;;;;;4.25;3.85;;;28.50;55.60;;;;;;5049044;28;20534;-69
2023/07/15 01:35:59;;;;;;;5.30;4.07;;;28.60;55.60;;;;;;5049055;28;20389;-67
2023/07/15 01:38:24;;;;;;;4.65;3.90;;;28.60;55.60;;;;;;5049138;28;20061;-69
2023/07/15 01:40:51;;;;;;;4.82;3.60;;;28.40;55.70;;;;;;5066211;28;20063;-69
2023/07/15 01:43:17;;;;;;;5.63;4.57;;;28.40;55.70;;;;;;5068971;28;20101;-68
2023/07/15 01:45:46;;;;;;;7.00;4.55;;;28.60;55.70;;;;;;5051779;28;20494;-69
2023/07/15 01:48:12;;;;;;;7.10;4.40;;;28.50;55.80;;;;;;5068977;28;20472;-68
2023/07/15 01:50:42;;;;;;;8.45;4.88;;;28.40;55.80;;;;;;5068981;28;20048;-68
2023/07/15 01:53:08;;;;;;;5.47;4.70;;;28.60;55.80;;;;;;5052392;28;20032;-69
2023/07/15 01:55:34;;;;;;;11.48;5.15;;;28.60;55.80;;;;;;5068712;28;20079;-69
2023/07/15 01:58:01;;;;;;;5.88;4.63;;;28.50;55.80;;;;;;5068892;28;20111;-69
2023/07/15 02:00:28;;;;;;;5.40;4.65;;;28.60;55.80;;;;;;5052089;28;20028;-69
2023/07/15 02:02:54;;;;;;;6.95;4.30;;;28.50;55.80;;;;;;5068801;28;20444;-69
2023/07/15 02:05:20;;;;;;;7.90;4.50;;;28.50;55.80;;;;;;5051937;28;20044;-69
2023/07/15 02:07:48;;;;;;;7.30;5.00;;;28.60;55.80;;;;;;5061131;28;20055;-69
2023/07/15 02:10:14;;;;;;;5.95;4.97;;;28.60;55.80;;;;;;5110643;28;20032;-68
2023/07/15 02:12:40;;;;;;;4.88;4.40;;;28.50;55.80;;;;;;5111738;28;20483;-69
2023/07/15 02:15:07;;;;;;;5.88;4.88;;;28.60;55.90;;;;;;5111446;28;20115;-68
2023/07/15 02:17:33;;;;;;;6.68;5.18;;;28.50;55.90;;;;;;5110578;28;20031;-69
2023/07/15 02:20:04;;;;;;;8.73;5.40;;;28.40;55.90;;;;;;5109558;28;20131;-68
2023/07/15 02:22:31;;;;;;;5.78;4.88;;;28.30;55.90;;;;;;5110203;28;20085;-68
2023/07/15 02:24:57;;;;;;;9.20;5.57;;;28.40;56.00;;;;;;5110479;28;20031;-69
2023/07/15 02:27:23;;;;;;;10.07;4.70;;;28.50;56.00;;;;;;5110169;28;20122;-69
2023/07/15 02:29:49;;;;;;;12.20;4.65;;;28.50;56.00;;;;;;5112923;28;20042;-69
2023/07/15 02:32:42;;;;;;;8.57;4.68;;;28.40;56.00;;;;;;5115697;28;20074;-69
2023/07/15 02:35:10;;;;;;;7.20;4.77;;;28.50;56.10;;;;;;5115411;28;20032;-69
2023/07/15 02:37:46;;;;;;;9.25;4.72;;;28.40;56.10;;;;;;5115597;28;20039;-69
2023/07/15 02:40:12;;;;;;;5.50;4.65;;;28.50;56.10;;;;;;5115479;28;20039;-69
2023/07/15 02:42:39;;;;;;;5.22;4.43;;;28.40;56.10;;;;;;5115408;28;20027;-68
2023/07/15 02:45:07;;;;;;;9.43;5.00;;;28.40;56.10;;;;;;5115361;28;20035;-69
2023/07/15 02:47:34;;;;;;;6.28;4.93;;;28.60;56.20;;;;;;5114929;28;20391;-69
2023/07/15 02:50:05;;;;;;;5.53;4.88;;;28.60;56.20;;;;;;5114335;28;20048;-69
2023/07/15 02:52:35;;;;;;;5.22;4.63;;;28.40;56.20;;;;;;5115468;28;20028;-69
2023/07/15 02:55:06;;;;;;;5.97;4.75;;;28.50;56.20;;;;;;5115294;28;20510;-69
2023/07/15 02:57:33;;;;;;;5.97;4.70;;;28.40;56.10;;;;;;5115104;28;20038;-68
2023/07/15 03:00:00;;;;;;;6.18;4.80;;;28.50;56.10;;;;;;5113713;28;20035;-69
2023/07/15 03:02:28;;;;;;;9.57;5.57;;;28.50;56.10;;;;;;5115119;28;20043;-69
2023/07/15 03:04:54;;;;;;;10.18;5.30;;;28.40;56.10;;;;;;5113517;28;20108;-68
2023/07/15 03:07:20;;;;;;;6.28;4.47;;;28.50;56.10;;;;;;5113567;28;20069;-68
2023/07/15 03:09:46;;;;;;;8.35;5.07;;;28.40;56.10;;;;;;5114697;28;20039;-69
2023/07/15 03:12:13;;;;;;;5.13;4.25;;;28.50;56.10;;;;;;5113875;28;20020;-68
2023/07/15 03:14:42;;;;;;;6.22;4.85;;;28.40;56.20;;;;;;5113448;28;20028;-69
2023/07/15 03:17:09;;;;;;;11.60;6.00;;;28.40;56.20;;;;;;5114697;28;20035;-68
2023/07/15 03:19:35;;;;;;;8.55;5.05;;;28.30;56.20;;;;;;5114884;27;20059;-69
2023/07/15 03:22:01;;;;;;;5.32;4.80;;;28.40;56.20;;;;;;5113559;28;20176;-68
2023/07/15 03:24:27;;;;;;;6.78;5.10;;;28.30;56.30;;;;;;5113321;28;20054;-69
2023/07/15 03:26:53;;;;;;;10.00;5.13;;;28.40;56.30;;;;;;5114359;28;20051;-69
2023/07/15 03:29:20;;;;;;;11.23;5.47;;;28.40;56.30;;;;;;5114524;28;20047;-68
2023/07/15 03:31:46;;;;;;;14.02;5.43;;;28.30;56.20;;;;;;5114132;28;20028;-69
2023/07/15 03:34:12;;;;;;;10.45;5.68;;;28.30;56.20;;;;;;5114532;28;20038;-69
2023/07/15 03:36:38;;;;;;;8.35;5.82;;;28.30;56.20;;;;;;5113015;28;20034;-69
2023/07/15 03:39:05;;;;;;;8.68;6.88;;;28.40;56.20;;;;;;5114357;28;20051;-69
2023/07/15 03:41:35;;;;;;;7.72;6.05;;;28.40;56.30;;;;;;5111927;28;20115;-69
2023/07/15 03:44:01;;;;;;;9.43;6.93;;;28.30;56.30;;;;;;5114005;28;20024;-70
2023/07/15 03:46:27;;;;;;;5.30;4.45;;;28.50;56.30;;;;;;5114492;28;20044;-70
2023/07/15 03:48:53;;;;;;;3.25;2.95;;;28.50;56.20;;;;;;5114118;28;20028;-68
2023/07/15 03:51:19;;;;;;;5.22;4.15;;;28.40;55.90;;;;;;5114363;28;20031;-71
2023/07/15 03:53:45;;;;;;;6.15;4.57;;;28.50;55.40;;;;;;5114331;28;20042;-69
2023/07/15 03:56:11;;;;;;;5.85;4.75;;;28.50;54.90;;;;;;5114037;28;20059;-70
2023/07/15 03:58:37;;;;;;;6.38;5.18;;;28.60;54.40;;;;;;5114160;28;20074;-70
2023/07/15 04:01:03;;;;;;;6.28;5.65;;;28.30;54.00;;;;;;5114397;28;20032;-71
2023/07/15 04:03:30;;;;;;;8.93;5.72;;;28.40;53.70;;;;;;5113985;28;20479;-68
2023/07/15 04:05:56;;;;;;;6.47;5.80;;;28.40;53.40;;;;;;5114098;28;20036;-72
2023/07/15 04:08:22;;;;;;;6.70;5.22;;;28.50;55.40;;;;;;5114017;28;20043;-73
2023/07/15 04:10:48;;;;;;;13.55;5.18;;;29.00;57.80;;;;;;5114273;28;20050;-70
2023/07/15 04:13:14;;;;;;;11.77;5.43;;;29.20;56.20;;;;;;5113418;28;20395;-69
2023/07/15 04:15:40;;;;;;;9.85;6.72;;;29.20;55.60;;;;;;5113712;28;20032;-70
2023/07/15 04:18:07;;;;;;;7.47;6.22;;;29.00;53.30;;;;;;5112866;28;20035;-69
2023/07/15 04:20:33;;;;;;;7.43;6.20;;;28.80;51.90;;;;;;5111295;28;20165;-71
2023/07/15 04:22:59;;;;;;;7.68;5.75;;;28.80;51.70;;;;;;5111846;28;20047;-69
2023/07/15 04:25:25;;;;;;;11.30;6.05;;;28.80;52.50;;;;;;5110889;28;20110;-70
2023/07/15 04:27:51;;;;;;;7.78;6.13;;;28.70;52.50;;;;;;5111168;28;20146;-70
2023/07/15 04:30:17;;;;;;;8.73;5.80;;;28.70;52.80;;;;;;5094125;28;21094;-70
2023/07/15 04:32:43;;;;;;;6.68;5.72;;;28.80;52.90;;;;;;5111339;28;20108;-70
2023/07/15 04:35:09;;;;;;;6.68;5.82;;;28.70;52.90;;;;;;5093865;28;20053;-71
2023/07/15 04:37:38;;;;;;;9.90;6.65;;;28.70;52.90;;;;;;5111040;28;20074;-71
2023/07/15 04:40:05;;;;;;;7.80;6.00;;;28.70;52.90;;;;;;5110982;28;20046;-69
2023/07/15 04:42:31;;;;;;;8.23;5.88;;;28.70;53.00;;;;;;5077113;28;20052;-69
2023/07/15 04:44:57;;;;;;;7.97;5.28;;;28.60;52.50;;;;;;5110297;28;20108;-69
2023/07/15 04:47:23;;;;;;;7.55;6.10;;;28.60;52.50;;;;;;5110411;28;20138;-69
2023/07/15 04:49:49;;;;;;;6.50;5.68;;;28.80;52.20;;;;;;5076577;28;20035;-69
2023/07/15 04:52:15;;;;;;;6.03;5.30;;;28.70;51.90;;;;;;5112160;28;20044;-69
2023/07/15 04:54:41;;;;;;;13.25;6.05;;;28.60;51.70;;;;;;5112853;28;20548;-71
2023/07/15 04:57:08;;;;;;;10.30;6.53;;;28.60;51.40;;;;;;5113062;28;20380;-71
2023/07/15 04:59:35;;;;;;;8.82;6.65;;;28.70;51.70;;;;;;5111451;28;20031;-71
2023/07/15 05:02:01;;;;;;;10.40;6.88;;;28.60;54.30;;;;;;5113100;28;20034;-71
2023/07/15 05:04:27;;;;;;;8.23;6.07;;;28.90;55.10;;;;;;5112611;28;20403;-70
2023/07/15 05:06:53;;;;;;;9.90;8.13;;;29.30;55.70;;;;;;5112386;28;20046;-69
2023/07/15 05:09:19;;;;;;;8.77;7.72;;;29.20;55.10;;;;;;5112758;28;20031;-70
2023/07/15 05:11:45;;;;;;;11.32;8.52;;;29.10;53.30;;;;;;5113146;28;20060;-70
2023/07/15 05:14:11;;;;;;;8.65;7.10;;;29.20;53.40;;;;;;5113127;28;20475;-70
2023/07/15 05:16:39;;;;;;;8.48;6.65;;;29.00;53.10;;;;;;5111005;28;20069;-69
2023/07/15 05:19:05;;;;;;;8.48;7.30;;;28.90;52.90;;;;;;5112648;28;20475;-70
2023/07/15 05:21:32;;;;;;;9.55;7.10;;;28.80;53.30;;;;;;5111773;28;20035;-69
2023/07/15 05:23:58;;;;;;;9.68;7.00;;;28.70;53.20;;;;;;5112279;28;20418;-71
2023/07/15 05:26:24;;;;;;;8.85;7.22;;;28.90;53.40;;;;;;5112713;28;20048;-70
2023/07/15 05:28:50;;;;;;;11.45;7.10;;;28.70;53.40;;;;;;5113122;28;20031;-69
2023/07/15 05:31:16;;;;;;;11.43;7.70;;;28.70;53.20;;;;;;5112572;28;20031;-70
2023/07/15 05:33:44;;;;;;;7.13;5.90;;;28.70;54.60;;;;;;5112172;28;20046;-70
2023/07/15 05:36:10;;;;;;;11.25;6.97;;;28.80;54.50;;;;;;5112332;28;20032;-70
2023/07/15 05:38:46;;;;;;;7.40;6.05;;;28.90;55.60;;;;;;5112568;28;20072;-70
2023/07/15 05:41:12;;;;;;;9.68;6.88;;;28.80;55.10;;;;;;5112268;28;20391;-70
2023/07/15 05:43:38;;;;;;;7.80;6.75;;;28.90;55.60;;;;;;5112078;28;20027;-69
2023/07/15 05:46:04;;;;;;;10.60;6.72;;;28.90;55.50;;;;;;5112064;28;20083;-70
2023/07/15 05:48:30;;;;;;;9.23;6.57;;;28.80;55.20;;;;;;5112365;28;20114;-71
2023/07/15 05:50:56;;;;;;;11.35;6.93;;;28.90;54.40;;;;;;5112083;28;20071;-72
2023/07/15 05:53:22;;;;;;;8.20;6.30;;;28.80;54.20;;;;;;5111936;28;20163;-71
2023/07/15 05:55:48;;;;;;;7.22;6.32;;;29.00;54.60;;;;;;5112058;28;20042;-70
2023/07/15 05:58:14;;;;;;;8.98;6.53;;;29.00;54.70;;;;;;5111632;28;20024;-70
2023/07/15 06:00:40;;;;;;;111.32;34.92;;;29.00;54.30;;;;;;5111678;28;20032;-69
2023/07/15 06:03:08;;;;;;;47.00;15.68;;;29.10;55.60;;;;;;5111592;28;20031;-69
2023/07/15 06:05:34;;;;;;;62.55;19.77;;;29.20;56.90;;;;;;5117398;28;20027;-70
2023/07/15 06:08:01;;;;;;;70.45;19.45;;;29.20;58.80;;;;;;5118719;27;20070;-71
2023/07/15 06:10:27;;;;;;;33.50;14.15;;;29.40;58.50;;;;;;5118543;27;20035;-72
2023/07/15 06:12:53;;;;;;;46.08;14.82;;;29.50;58.90;;;;;;5118715;27;20032;-71
2023/07/15 06:15:19;;;;;;;20.92;8.30;;;29.50;57.70;;;;;;5118373;27;20531;-69
2023/07/15 06:17:45;;;;;;;39.42;11.73;;;29.40;54.20;;;;;;5118441;27;20032;-70
2023/07/15 06:20:12;;;;;;;23.77;10.82;;;29.30;55.60;;;;;;5118245;27;20448;-69
2023/07/15 06:22:38;;;;;;;26.80;9.93;;;29.40;59.20;;;;;;5118490;27;20034;-69
2023/07/15 06:25:04;;;;;;;31.65;11.30;;;29.30;55.40;;;;;;5118264;27;20032;-70
2023/07/15 06:27:30;;;;;;;26.08;10.65;;;29.40;55.10;;;;;;5116831;28;20352;-70
2023/07/15 06:29:56;;;;;;;11.13;7.70;;;29.50;54.80;;;;;;5118257;27;20553;-70
2023/07/15 06:32:22;;;;;;;13.00;8.07;;;29.50;58.00;;;;;;5117076;28;20040;-72
2023/07/15 06:34:48;;;;;;;9.65;6.70;;;29.60;58.50;;;;;;5116946;28;20031;-71
2023/07/15 06:37:14;;;;;;;23.52;9.52;;;29.60;54.20;;;;;;5118227;27;20084;-69
2023/07/15 06:39:40;;;;;;;10.07;6.53;;;29.50;57.10;;;;;;5118132;27;20050;-69
2023/07/15 06:42:06;;;;;;;11.73;6.82;;;29.50;54.60;;;;;;5118109;27;20031;-70
2023/07/15 06:44:32;;;;;;;14.60;8.00;;;29.40;54.00;;;;;;5117103;28;20039;-69
2023/07/15 06:46:58;;;;;;;18.00;8.80;;;29.40;54.10;;;;;;5116420;28;20514;-71
2023/07/15 06:49:24;;;;;;;16.65;8.50;;;29.50;54.20;;;;;;5117943;28;20028;-71
2023/07/15 06:51:50;;;;;;;12.43;7.70;;;29.60;57.80;;;;;;5116737;28;20033;-70
2023/07/15 06:54:16;;;;;;;15.35;7.65;;;29.60;54.20;;;;;;5116623;28;20063;-71
2023/07/15 06:56:42;;;;;;;11.38;6.90;;;29.50;56.60;;;;;;5117996;27;20034;-72
2023/07/15 06:59:08;;;;;;;8.23;6.95;;;29.70;54.40;;;;;;5118050;27;20552;-70
2023/07/15 07:01:34;;;;;;;8.07;6.20;;;29.70;53.40;;;;;;5116812;28;20038;-69
2023/07/15 07:04:00;;;;;;;9.23;7.07;;;29.40;53.30;;;;;;5116639;28;20028;-70
2023/07/15 07:06:27;;;;;;;9.05;5.90;;;29.40;51.80;;;;;;5117859;27;20031;-69
2023/07/15 07:08:54;;;;;;;7.45;5.88;;;29.40;51.10;;;;;;5118072;27;20038;-69
2023/07/15 07:11:21;;;;;;;6.15;5.47;;;29.40;51.10;;;;;;5117959;27;20031;-69
2023/07/15 07:13:47;;;;;;;6.22;5.68;;;29.50;50.00;;;;;;5117511;27;20023;-69
2023/07/15 07:16:13;;;;;;;6.50;5.75;;;29.30;49.50;;;;;;5115781;27;20028;-69
2023/07/15 07:18:39;;;;;;;6.65;5.20;;;29.20;48.70;;;;;;5114322;28;20027;-70
2023/07/15 07:21:05;;;;;;;6.63;5.38;;;29.20;49.40;;;;;;5113030;28;20039;-70
2023/07/15 07:23:31;;;;;;;7.63;5.53;;;29.10;50.10;;;;;;5114547;28;20084;-69
2023/07/15 07:25:57;;;;;;;6.82;5.18;;;29.20;51.30;;;;;;5114113;28;20038;-70
2023/07/15 07:28:38;;;;;;;5.68;4.60;;;29.00;50.30;;;;;;5114460;28;20517;-70
2023/07/15 07:31:04;;;;;;;8.95;4.88;;;29.10;50.00;;;;;;5112870;28;20027;-69
2023/07/15 07:33:30;;;;;;;8.48;4.82;;;29.00;49.10;;;;;;5114389;28;20137;-69
2023/07/15 07:35:56;;;;;;;5.20;4.10;;;28.90;48.30;;;;;;5131580;27;20047;-68
2023/07/15 07:38:22;;;;;;;7.97;5.07;;;28.90;48.20;;;;;;5132077;27;20495;-69
2023/07/15 07:40:48;;;;;;;5.72;5.13;;;29.00;49.30;;;;;;5132071;27;20046;-68
2023/07/15 07:43:14;;;;;;;7.28;5.55;;;28.80;49.60;;;;;;5132145;27;20031;-68
2023/07/15 07:45:40;;;;;;;7.47;4.72;;;28.70;48.90;;;;;;5132008;27;20047;-69
2023/07/15 07:48:05;;;;;;;6.88;5.25;;;28.80;49.00;;;;;;5131831;27;20471;-69
2023/07/15 07:50:35;;;;;;;5.60;4.75;;;28.80;49.00;;;;;;5132002;27;20047;-70
2023/07/15 07:53:01;;;;;;;5.72;4.60;;;28.80;50.50;;;;;;5097499;27;20046;-70
2023/07/15 07:55:27;;;;;;;7.15;4.15;;;28.70;50.60;;;;;;5132024;27;20051;-70
2023/07/15 07:57:53;;;;;;;6.00;4.75;;;28.80;50.90;;;;;;5131865;27;20043;-71
2023/07/15 08:00:19;;;;;;;5.78;4.63;;;28.80;50.80;;;;;;5132141;27;20031;-71
2023/07/15 08:02:45;;;;;;;7.25;4.05;;;29.00;51.40;;;;;;5131962;27;20665;-72
2023/07/15 08:05:11;;;;;;;4.65;3.72;;;28.90;51.20;;;;;;5131843;27;20072;-70
2023/07/15 08:07:37;;;;;;;10.07;4.40;;;28.90;51.10;;;;;;5117189;27;20055;-71
2023/07/15 08:10:03;;;;;;;5.57;4.13;;;29.00;51.80;;;;;;5113762;28;20528;-71
2023/07/15 08:12:29;;;;;;;6.20;4.55;;;29.00;51.70;;;;;;5113416;28;20039;-71
2023/07/15 08:14:55;;;;;;;5.00;3.13;;;28.90;50.20;;;;;;5113213;28;20559;-71
2023/07/15 08:17:21;;;;;;;7.00;5.47;;;29.10;50.60;;;;;;5113470;28;20032;-72
2023/07/15 08:19:47;;;;;;;4.60;3.67;;;29.00;50.50;;;;;;5113346;28;20031;-74
2023/07/15 08:22:14;;;;;;;5.30;3.53;;;28.90;50.20;;;;;;5113437;28;20460;-72
2023/07/15 08:24:40;;;;;;;6.10;3.83;;;29.10;50.60;;;;;;5113459;28;20034;-72
2023/07/15 08:27:06;;;;;;;9.25;4.03;;;29.00;50.60;;;;;;5112727;28;20043;-76
2023/07/15 08:29:32;;;;;;;4.70;3.70;;;29.00;50.70;;;;;;5112008;28;20027;-81
2023/07/15 08:31:58;;;;;;;5.80;3.75;;;29.00;50.80;;;;;;5113605;28;20028;-79
2023/07/15 08:34:24;;;;;;;8.05;4.97;;;29.00;50.80;;;;;;5112679;28;20080;-75
2023/07/15 08:36:51;;;;;;;6.80;5.40;;;29.10;50.70;;;;;;5112846;28;20043;-74
2023/07/15 08:39:17;;;;;;;5.13;4.55;;;29.10;50.80;;;;;;5113383;28;20106;-75
2023/07/15 08:41:44;;;;;;;7.00;4.53;;;29.00;50.70;;;;;;5113183;28;20429;-75
2023/07/15 08:44:10;;;;;;;5.53;4.47;;;29.10;50.60;;;;;;5113452;28;20475;-73
2023/07/15 08:46:37;;;;;;;7.47;4.60;;;28.90;50.00;;;;;;5112080;28;20122;-74
2023/07/15 08:49:03;;;;;;;13.23;6.82;;;29.20;50.50;;;;;;5111455;28;20076;-73
2023/07/15 08:51:35;;;;;;;14.68;7.45;;;29.00;50.50;;;;;;5111109;28;20032;-74
2023/07/15 08:54:03;;;;;;;7.32;5.40;;;29.00;50.40;;;;;;5112254;28;20107;-75
2023/07/15 08:56:34;;;;;;;7.13;4.13;;;29.20;50.40;;;;;;5111797;28;20042;-75
2023/07/15 08:59:02;;;;;;;5.85;4.72;;;29.10;50.40;;;;;;5108304;28;20027;-72
2023/07/15 09:01:28;;;;;;;5.13;3.35;;;29.20;50.60;;;;;;5111896;28;20364;-75
2023/07/15 09:03:54;;;;;;;6.15;4.32;;;29.00;50.80;;;;;;5112606;28;20031;-78
2023/07/15 09:06:20;;;;;;;5.50;3.40;;;29.10;51.20;;;;;;5109586;28;20072;-77
2023/07/15 09:08:52;;;;;;;3.85;3.45;;;29.10;51.50;;;;;;5112014;28;20035;-72
2023/07/15 09:11:18;;;;;;;;;;;29.20;51.90;;;;;;5111243;28;20406;-72
2023/07/15 09:13:45;;;;;;;5.57;4.45;;;29.30;52.10;;;;;;5111947;28;19907;-72
2023/07/15 09:16:12;;;;;;;4.18;3.13;;;29.10;52.30;;;;;;5112164;28;20057;-72
2023/07/15 09:18:42;;;;;;;4.85;3.70;;;29.20;53.10;;;;;;5111775;28;20436;-76
2023/07/15 09:21:11;;;;;;;7.32;3.97;;;29.40;56.20;;;;;;5111688;28;20085;-74
2023/07/15 09:23:44;;;;;;;11.68;4.72;;;29.40;54.10;;;;;;5111756;28;20030;-70
2023/07/15 09:26:11;;;;;;;5.15;4.68;;;29.50;53.10;;;;;;5111417;28;20557;-73
2023/07/15 09:28:39;;;;;;;6.00;5.40;;;29.60;52.60;;;;;;5110876;28;20043;-72
2023/07/15 09:31:05;;;;;;;7.30;5.10;;;29.70;53.50;;;;;;5110823;28;20050;-71
2023/07/15 09:33:38;;;;;;;6.35;5.32;;;29.50;53.70;;;;;;5111555;28;20491;-70
2023/07/15 09:36:04;;;;;;;;;;;29.50;54.10;;;;;;5106924;28;20444;-69
2023/07/15 09:38:37;;;;;;;4.82;4.32;;;29.50;54.80;;;;;;5111268;28;20386;-72
2023/07/15 09:41:05;;;;;;;5.70;4.60;;;29.60;54.10;;;;;;5107367;28;20032;-70
2023/07/15 09:43:50;;;;;;;7.00;3.38;;;29.50;53.40;;;;;;5111794;28;20027;-72
2023/07/15 09:46:17;;;;;;;4.90;4.05;;;29.60;52.90;;;;;;5111962;28;20398;-71
2023/07/15 09:48:45;;;;;;;4.80;3.22;;;29.40;52.50;;;;;;5109060;28;20070;-71
2023/07/15 09:51:13;;;;;;;5.28;4.25;;;29.60;52.30;;;;;;5109263;28;20044;-71
2023/07/15 09:53:49;;;;;;;6.85;4.50;;;29.50;52.30;;;;;;5109530;28;20043;-76
2023/07/15 09:56:37;;;;;;;4.80;3.85;;;29.40;52.20;;;;;;5109337;28;20038;-77
2023/07/15 09:59:14;;;;;;;5.47;4.32;;;29.50;52.30;;;;;;5108758;28;20048;-77
2023/07/15 10:01:47;;;;;;;5.72;3.80;;;29.70;55.40;;;;;;5109224;28;20024;-80
2023/07/15 10:04:30;;;;;;;8.65;3.83;;;29.80;54.40;;;;;;5109187;28;20402;-78
2023/07/15 10:06:58;;;;;;;16.25;6.30;;;29.70;54.90;;;;;;5092196;28;20410;-74
2023/07/15 10:09:25;;;;;;;4.68;3.58;;;29.80;55.60;;;;;;5109143;28;20055;-77
2023/07/15 10:11:54;;;;;;;6.60;4.55;;;30.00;56.40;;;;;;5108800;28;20108;-74
2023/07/15 10:14:21;;;;;;;6.63;3.97;;;30.30;55.00;;;;;;5109070;28;20043;-75
2023/07/15 10:17:10;;;;;;;5.03;4.53;;;30.10;54.10;;;;;;5098921;28;20071;-73
2023/07/15 10:19:52;;;;;;;3.50;3.03;;;30.00;53.30;;;;;;5088563;28;20048;-69
2023/07/15 10:22:23;;;;;;;4.85;3.67;;;30.00;52.90;;;;;;5090787;28;20043;-69
2023/07/15 10:24:57;;;;;;;3.95;3.42;;;30.00;52.60;;;;;;5089945;28;20032;-71
2023/07/15 10:27:27;;;;;;;4.70;3.53;;;29.90;51.90;;;;;;5090725;28;20104;-71
2023/07/15 10:30:15;;;;;;;4.03;3.22;;;30.00;52.50;;;;;;5108389;28;20035;-71
2023/07/15 10:33:08;;;;;;;4.90;3.55;;;30.00;52.40;;;;;;5098092;28;20088;-74
2023/07/15 10:35:41;;;;;;;5.55;4.07;;;30.10;54.60;;;;;;5103843;28;20439;-73
2023/07/15 10:38:27;;;;;;;4.53;4.07;;;30.40;58.40;;;;;;5109116;28;20460;-75
2023/07/15 10:40:57;;;;;;;8.27;4.53;;;30.50;59.20;;;;;;5090922;28;20537;-75
2023/07/15 10:43:33;;;;;;;5.80;3.92;;;30.60;59.80;;;;;;5100528;28;20032;-74
2023/07/15 10:46:17;;;;;;;10.65;4.40;;;30.70;55.50;;;;;;5111405;28;20051;-75
2023/07/15 10:48:44;;;;;;;6.50;4.80;;;30.70;54.80;;;;;;5111189;28;20075;-75
2023/07/15 10:51:11;;;;;;;4.63;4.13;;;30.50;55.60;;;;;;5112771;28;20031;-76
2023/07/15 10:53:38;;;;;;;4.53;3.72;;;30.60;53.90;;;;;;5115013;28;20043;-74
2023/07/15 10:56:09;;;;;;;4.43;3.90;;;30.50;53.70;;;;;;5113695;28;20440;-75
2023/07/15 10:58:36;;;;;;;4.55;3.80;;;30.30;53.20;;;;;;5113814;28;20452;-76
2023/07/15 11:01:07;;;;;;;4.85;3.47;;;30.50;53.10;;;;;;5114868;28;20044;-76
2023/07/15 11:03:43;;;;;;;3.90;3.38;;;30.30;52.90;;;;;;5113667;28;20038;-74
2023/07/15 11:06:10;;;;;;;5.55;3.42;;;30.30;52.70;;;;;;5114938;28;20031;-77
2023/07/15 11:08:38;;;;;;;6.63;4.28;;;30.20;52.70;;;;;;5114513;28;20039;-78
2023/07/15 11:11:06;;;;;;;5.70;3.60;;;30.20;52.80;;;;;;5113812;28;20461;-76
2023/07/15 11:13:36;;;;;;;3.20;2.72;;;30.20;53.00;;;;;;5114992;28;20038;-76
2023/07/15 11:16:02;;;;;;;4.22;3.13;;;30.30;53.20;;;;;;5114904;27;20040;-77
2023/07/15 11:18:28;;;;;;;2.95;2.63;;;30.10;53.20;;;;;;5114343;28;20046;-77
2023/07/15 11:20:58;;;;;;;3.92;3.30;;;30.20;53.20;;;;;;5114253;28;20027;-76
2023/07/15 11:23:27;;;;;;;3.30;3.00;;;30.30;53.30;;;;;;5114511;28;20032;-75
2023/07/15 11:25:53;;;;;;;3.63;3.00;;;30.20;53.30;;;;;;5114726;28;20039;-75
2023/07/15 11:28:19;;;;;;;4.90;3.25;;;30.10;53.30;;;;;;5112473;28;20051;-74
2023/07/15 11:30:47;;;;;;;6.60;3.13;;;30.20;53.40;;;;;;5114401;28;20024;-75
2023/07/15 11:33:14;;;;;;;4.68;3.22;;;30.00;53.50;;;;;;5114408;27;20088;-74
2023/07/15 11:35:41;;;;;;;3.95;3.15;;;30.10;53.50;;;;;;5113834;28;20054;-76
2023/07/15 11:38:14;;;;;;;6.07;3.03;;;30.10;53.50;;;;;;5114247;28;20034;-74
2023/07/15 11:40:58;;;;;;;3.28;2.83;;;30.20;53.50;;;;;;5113312;28;20059;-76
2023/07/15 11:43:28;;;;;;;4.05;2.55;;;30.10;53.50;;;;;;5114003;27;20089;-76
2023/07/15 11:45:56;;;;;;;4.03;2.60;;;30.10;53.50;;;;;;5114182;27;20058;-75
2023/07/15 11:48:23;;;;;;;3.10;2.65;;;30.10;53.50;;;;;;5114211;28;20107;-76
2023/07/15 11:50:50;;;;;;;5.38;2.90;;;30.10;53.60;;;;;;5095813;28;20027;-74
2023/07/15 11:53:33;;;;;;;4.82;3.08;;;30.10;53.60;;;;;;5112907;28;20406;-74
2023/07/15 11:56:00;;;;;;;3.38;2.70;;;30.20;53.70;;;;;;5113867;28;20031;-75
2023/07/15 11:58:38;;;;;;;6.78;3.00;;;30.10;53.80;;;;;;5112253;28;20046;-75
2023/07/15 12:01:06;;;;;;;3.55;2.72;;;30.00;53.90;;;;;;5095373;28;20046;-74
2023/07/15 12:03:32;;;;;;;3.30;2.78;;;30.20;53.90;;;;;;5112284;28;20024;-77
2023/07/15 12:05:59;;;;;;;3.03;2.67;;;29.90;53.40;;;;;;5113626;28;20036;-78
2023/07/15 12:08:25;;;;;;;4.15;2.97;;;30.00;53.90;;;;;;5112913;28;20501;-76
2023/07/15 12:10:55;;;;;;;3.33;2.67;;;30.00;53.90;;;;;;5113516;28;20039;-76
2023/07/15 12:13:21;;;;;;;4.78;2.67;;;30.00;53.90;;;;;;5112549;28;20422;-76
2023/07/15 12:15:47;;;;;;;4.78;2.92;;;30.00;54.00;;;;;;5112133;28;20164;-76
2023/07/15 12:18:13;;;;;;;2.80;2.60;;;30.00;54.00;;;;;;5113448;28;20024;-74
2023/07/15 12:20:39;;;;;;;3.33;2.53;;;29.90;53.60;;;;;;5113008;28;20027;-74
2023/07/15 12:23:08;;;;;;;5.97;2.97;;;29.90;53.80;;;;;;5112588;28;20468;-77
2023/07/15 12:25:34;;;;;;;5.50;2.80;;;30.10;54.60;;;;;;5113175;28;20028;-75
2023/07/15 12:28:00;;;;;;;2.70;2.50;;;29.90;54.00;;;;;;5113094;28;20080;-76
2023/07/15 12:30:26;;;;;;;3.80;2.60;;;30.00;54.80;;;;;;5078243;28;20047;-75
2023/07/15 12:32:52;;;;;;;3.30;2.50;;;29.90;54.20;;;;;;5131237;27;20046;-76
2023/07/15 12:35:18;;;;;;;3.88;3.05;;;30.00;54.80;;;;;;5130963;27;20176;-77
2023/07/15 12:37:44;;;;;;;3.13;2.63;;;29.90;54.30;;;;;;5130676;27;20134;-76
2023/07/15 12:40:10;;;;;;;4.38;3.03;;;29.80;54.30;;;;;;5114433;27;20160;-77
2023/07/15 12:42:36;;;;;;;3.83;2.60;;;29.80;54.30;;;;;;5113914;27;20054;-76
2023/07/15 12:45:02;;;;;;;2.75;2.55;;;29.90;54.20;;;;;;5131130;27;20039;-77
2023/07/15 12:47:29;;;;;;;7.93;2.50;;;29.90;54.20;;;;;;5130563;27;20162;-77
2023/07/15 12:49:55;;;;;;;5.35;2.50;;;29.90;54.10;;;;;;5130961;27;20551;-77